sensor_id;sensor_type;location;lat;lon;timestamp;P1;durP1;ratioP1;P2;durP2;ratioP2
78799;SDS011;68148;55.328;86.106;2023-07-13T00:01:26;4.82;;;1.92;;
78799;SDS011;68148;55.328;86.106;2023-07-13T00:03:52;10.02;;;2.45;;
78799;SDS011;68148;55.328;86.106;2023-07-13T00:08:44;8.07;;;2.00;;
78799;SDS011;68148;55.328;86.106;2023-07-13T00:11:10;4.57;;;1.40;;
78799;SDS011;68148;55.328;86.106;2023-07-13T00:13:37;3.92;;;1.58;;
78799;SDS011;68148;55.328;86.106;2023-07-13T00:16:02;8.70;;;1.73;;
78799;SDS011;68148;55.328;86.106;2023-07-13T00:18:28;2.85;;;1.90;;
78799;SDS011;68148;55.328;86.106;2023-07-13T00:20:57;4.82;;;1.85;;
78799;SDS011;68148;55.328;86.106;2023-07-13T00:23:29;5.05;;;1.63;;
78799;SDS011;68148;55.328;86.106;2023-07-13T00:25:54;4.30;;;1.50;;
78799;SDS011;68148;55.328;86.106;2023-07-13T00:28:20;2.83;;;1.40;;
78799;SDS011;68148;55.328;86.106;2023-07-13T00:30:46;4.05;;;1.70;;
78799;SDS011;68148;55.328;86.106;2023-07-13T00:33:12;11.45;;;1.92;;
78799;SDS011;68148;55.328;86.106;2023-07-13T00:35:38;12.30;;;2.22;;
78799;SDS011;68148;55.328;86.106;2023-07-13T00:38:04;3.17;;;1.67;;
78799;SDS011;68148;55.328;86.106;2023-07-13T00:40:30;7.10;;;2.40;;
78799;SDS011;68148;55.328;86.106;2023-07-13T00:42:57;3.63;;;1.85;;
78799;SDS011;68148;55.328;86.106;2023-07-13T00:47:50;5.90;;;1.90;;
78799;SDS011;68148;55.328;86.106;2023-07-13T00:50:16;4.65;;;1.73;;
78799;SDS011;68148;55.328;86.106;2023-07-13T00:52:45;4.22;;;1.75;;
78799;SDS011;68148;55.328;86.106;2023-07-13T00:55:13;4.13;;;1.92;;
78799;SDS011;68148;55.328;86.106;2023-07-13T00:57:48;9.18;;;1.55;;
78799;SDS011;68148;55.328;86.106;2023-07-13T01:00:14;2.47;;;1.70;;
78799;SDS011;68148;55.328;86.106;2023-07-13T01:02:41;8.23;;;2.30;;
78799;SDS011;68148;55.328;86.106;2023-07-13T01:05:10;6.72;;;2.28;;
78799;SDS011;68148;55.328;86.106;2023-07-13T01:07:37;5.05;;;2.00;;
78799;SDS011;68148;55.328;86.106;2023-07-13T01:10:04;10.65;;;2.45;;
78799;SDS011;68148;55.328;86.106;2023-07-13T01:12:30;3.03;;;2.40;;
78799;SDS011;68148;55.328;86.106;2023-07-13T01:14:59;10.05;;;2.75;;
78799;SDS011;68148;55.328;86.106;2023-07-13T01:17:27;7.47;;;2.30;;
78799;SDS011;68148;55.328;86.106;2023-07-13T01:19:53;28.40;;;2.42;;
78799;SDS011;68148;55.328;86.106;2023-07-13T01:22:21;4.93;;;2.17;;
78799;SDS011;68148;55.328;86.106;2023-07-13T01:27:14;2.70;;;1.92;;
78799;SDS011;68148;55.328;86.106;2023-07-13T01:29:43;4.82;;;2.33;;
78799;SDS011;68148;55.328;86.106;2023-07-13T01:34:36;8.52;;;2.28;;
78799;SDS011;68148;55.328;86.106;2023-07-13T01:37:03;7.35;;;2.53;;
78799;SDS011;68148;55.328;86.106;2023-07-13T01:39:30;7.45;;;2.22;;
78799;SDS011;68148;55.328;86.106;2023-07-13T01:41:56;2.83;;;1.80;;
78799;SDS011;68148;55.328;86.106;2023-07-13T01:44:22;3.95;;;1.98;;
78799;SDS011;68148;55.328;86.106;2023-07-13T01:46:48;6.03;;;1.95;;
78799;SDS011;68148;55.328;86.106;2023-07-13T01:49:14;9.05;;;2.38;;
78799;SDS011;68148;55.328;86.106;2023-07-13T01:51:41;4.35;;;2.30;;
78799;SDS011;68148;55.328;86.106;2023-07-13T01:54:06;5.35;;;1.90;;
78799;SDS011;68148;55.328;86.106;2023-07-13T01:56:32;13.55;;;2.20;;
78799;SDS011;68148;55.328;86.106;2023-07-13T01:58:58;2.63;;;1.95;;
78799;SDS011;68148;55.328;86.106;2023-07-13T02:01:24;5.30;;;2.30;;
78799;SDS011;68148;55.328;86.106;2023-07-13T02:03:49;8.80;;;2.20;;
78799;SDS011;68148;55.328;86.106;2023-07-13T02:06:15;3.67;;;2.25;;
78799;SDS011;68148;55.328;86.106;2023-07-13T02:08:41;4.25;;;2.15;;
78799;SDS011;68148;55.328;86.106;2023-07-13T02:11:07;8.10;;;2.70;;
78799;SDS011;68148;55.328;86.106;2023-07-13T02:13:36;11.48;;;2.53;;
78799;SDS011;68148;55.328;86.106;2023-07-13T02:16:02;5.60;;;2.40;;
78799;SDS011;68148;55.328;86.106;2023-07-13T02:18:28;4.45;;;2.25;;
78799;SDS011;68148;55.328;86.106;2023-07-13T02:20:54;3.70;;;2.03;;
78799;SDS011;68148;55.328;86.106;2023-07-13T02:23:19;13.82;;;2.72;;
78799;SDS011;68148;55.328;86.106;2023-07-13T02:25:45;6.65;;;2.55;;
78799;SDS011;68148;55.328;86.106;2023-07-13T02:28:11;4.05;;;2.40;;
78799;SDS011;68148;55.328;86.106;2023-07-13T02:30:37;6.75;;;2.47;;
78799;SDS011;68148;55.328;86.106;2023-07-13T02:33:03;4.22;;;3.10;;
78799;SDS011;68148;55.328;86.106;2023-07-13T02:35:29;6.22;;;3.00;;
78799;SDS011;68148;55.328;86.106;2023-07-13T02:37:54;5.97;;;3.05;;
78799;SDS011;68148;55.328;86.106;2023-07-13T02:40:20;4.15;;;2.97;;
78799;SDS011;68148;55.328;86.106;2023-07-13T02:42:46;7.88;;;2.83;;
78799;SDS011;68148;55.328;86.106;2023-07-13T02:45:12;4.53;;;2.88;;
78799;SDS011;68148;55.328;86.106;2023-07-13T02:47:40;7.88;;;3.25;;
78799;SDS011;68148;55.328;86.106;2023-07-13T02:50:06;7.55;;;2.60;;
78799;SDS011;68148;55.328;86.106;2023-07-13T02:52:33;7.82;;;2.67;;
78799;SDS011;68148;55.328;86.106;2023-07-13T02:54:59;7.45;;;2.85;;
78799;SDS011;68148;55.328;86.106;2023-07-13T02:57:24;6.80;;;3.28;;
78799;SDS011;68148;55.328;86.106;2023-07-13T02:59:50;7.35;;;2.92;;
78799;SDS011;68148;55.328;86.106;2023-07-13T03:02:16;5.53;;;3.42;;
78799;SDS011;68148;55.328;86.106;2023-07-13T03:04:42;9.75;;;3.42;;
78799;SDS011;68148;55.328;86.106;2023-07-13T03:07:08;8.10;;;3.45;;
78799;SDS011;68148;55.328;86.106;2023-07-13T03:09:34;8.63;;;3.25;;
78799;SDS011;68148;55.328;86.106;2023-07-13T03:12:00;6.90;;;3.20;;
78799;SDS011;68148;55.328;86.106;2023-07-13T03:14:26;6.47;;;3.10;;
78799;SDS011;68148;55.328;86.106;2023-07-13T03:16:52;14.70;;;3.42;;
78799;SDS011;68148;55.328;86.106;2023-07-13T03:19:18;7.80;;;3.50;;
78799;SDS011;68148;55.328;86.106;2023-07-13T03:21:44;7.13;;;3.05;;
78799;SDS011;68148;55.328;86.106;2023-07-13T03:24:10;6.80;;;3.63;;
78799;SDS011;68148;55.328;86.106;2023-07-13T03:26:36;4.63;;;2.95;;
78799;SDS011;68148;55.328;86.106;2023-07-13T03:29:04;5.18;;;3.78;;
78799;SDS011;68148;55.328;86.106;2023-07-13T03:31:32;7.53;;;3.78;;
78799;SDS011;68148;55.328;86.106;2023-07-13T03:33:59;9.98;;;3.65;;
78799;SDS011;68148;55.328;86.106;2023-07-13T03:36:26;5.47;;;3.83;;
78799;SDS011;68148;55.328;86.106;2023-07-13T03:38:55;5.82;;;3.72;;
78799;SDS011;68148;55.328;86.106;2023-07-13T03:41:22;12.07;;;4.20;;
78799;SDS011;68148;55.328;86.106;2023-07-13T03:43:49;8.52;;;3.92;;
78799;SDS011;68148;55.328;86.106;2023-07-13T03:46:16;5.70;;;3.60;;
78799;SDS011;68148;55.328;86.106;2023-07-13T03:48:43;10.25;;;4.28;;
78799;SDS011;68148;55.328;86.106;2023-07-13T03:51:11;9.95;;;3.17;;
78799;SDS011;68148;55.328;86.106;2023-07-13T03:53:38;8.18;;;3.60;;
78799;SDS011;68148;55.328;86.106;2023-07-13T03:56:06;7.03;;;4.05;;
78799;SDS011;68148;55.328;86.106;2023-07-13T03:58:33;8.10;;;4.30;;
78799;SDS011;68148;55.328;86.106;2023-07-13T04:01:01;11.43;;;4.40;;
78799;SDS011;68148;55.328;86.106;2023-07-13T04:03:28;23.40;;;4.82;;
78799;SDS011;68148;55.328;86.106;2023-07-13T04:05:55;6.05;;;4.40;;
78799;SDS011;68148;55.328;86.106;2023-07-13T04:08:21;11.98;;;4.38;;
78799;SDS011;68148;55.328;86.106;2023-07-13T04:10:46;9.82;;;4.70;;
78799;SDS011;68148;55.328;86.106;2023-07-13T04:13:12;9.68;;;5.07;;
78799;SDS011;68148;55.328;86.106;2023-07-13T04:15:38;10.90;;;5.05;;
78799;SDS011;68148;55.328;86.106;2023-07-13T04:18:04;9.32;;;4.72;;
78799;SDS011;68148;55.328;86.106;2023-07-13T04:20:30;11.82;;;4.95;;
78799;SDS011;68148;55.328;86.106;2023-07-13T04:22:55;124.15;;;8.40;;
78799;SDS011;68148;55.328;86.106;2023-07-13T04:25:21;12.30;;;4.65;;
78799;SDS011;68148;55.328;86.106;2023-07-13T04:27:47;14.05;;;5.47;;
78799;SDS011;68148;55.328;86.106;2023-07-13T04:30:13;10.40;;;5.05;;
78799;SDS011;68148;55.328;86.106;2023-07-13T04:32:38;25.08;;;6.20;;
78799;SDS011;68148;55.328;86.106;2023-07-13T04:35:04;7.50;;;5.32;;
78799;SDS011;68148;55.328;86.106;2023-07-13T04:37:30;19.08;;;5.38;;
78799;SDS011;68148;55.328;86.106;2023-07-13T04:39:56;14.55;;;5.57;;
78799;SDS011;68148;55.328;86.106;2023-07-13T04:42:22;11.13;;;5.68;;
78799;SDS011;68148;55.328;86.106;2023-07-13T04:44:51;10.88;;;6.15;;
78799;SDS011;68148;55.328;86.106;2023-07-13T04:47:17;12.85;;;6.15;;
78799;SDS011;68148;55.328;86.106;2023-07-13T04:49:44;11.90;;;6.85;;
78799;SDS011;68148;55.328;86.106;2023-07-13T04:52:10;15.13;;;7.10;;
78799;SDS011;68148;55.328;86.106;2023-07-13T04:54:37;14.93;;;7.07;;
78799;SDS011;68148;55.328;86.106;2023-07-13T04:57:03;10.82;;;6.82;;
78799;SDS011;68148;55.328;86.106;2023-07-13T04:59:30;32.33;;;7.97;;
78799;SDS011;68148;55.328;86.106;2023-07-13T05:01:55;11.43;;;7.07;;
78799;SDS011;68148;55.328;86.106;2023-07-13T05:04:21;9.05;;;7.07;;
78799;SDS011;68148;55.328;86.106;2023-07-13T05:06:50;9.77;;;6.80;;
78799;SDS011;68148;55.328;86.106;2023-07-13T05:09:16;15.65;;;8.05;;
78799;SDS011;68148;55.328;86.106;2023-07-13T05:11:43;12.35;;;7.38;;
78799;SDS011;68148;55.328;86.106;2023-07-13T05:14:09;16.15;;;7.70;;
78799;SDS011;68148;55.328;86.106;2023-07-13T05:16:34;17.70;;;7.90;;
78799;SDS011;68148;55.328;86.106;2023-07-13T05:19:01;14.98;;;7.63;;
78799;SDS011;68148;55.328;86.106;2023-07-13T05:21:28;23.90;;;8.25;;
78799;SDS011;68148;55.328;86.106;2023-07-13T05:23:55;13.02;;;7.25;;
78799;SDS011;68148;55.328;86.106;2023-07-13T05:28:47;20.23;;;7.68;;
78799;SDS011;68148;55.328;86.106;2023-07-13T05:31:13;20.58;;;7.75;;
78799;SDS011;68148;55.328;86.106;2023-07-13T05:33:39;15.35;;;8.15;;
78799;SDS011;68148;55.328;86.106;2023-07-13T05:36:05;15.48;;;7.40;;
78799;SDS011;68148;55.328;86.106;2023-07-13T05:38:31;15.63;;;7.75;;
78799;SDS011;68148;55.328;86.106;2023-07-13T05:40:57;13.73;;;7.60;;
78799;SDS011;68148;55.328;86.106;2023-07-13T05:43:23;13.68;;;7.78;;
78799;SDS011;68148;55.328;86.106;2023-07-13T05:45:51;16.17;;;7.03;;
78799;SDS011;68148;55.328;86.106;2023-07-13T05:48:22;10.77;;;7.15;;
78799;SDS011;68148;55.328;86.106;2023-07-13T05:50:48;11.02;;;7.55;;
78799;SDS011;68148;55.328;86.106;2023-07-13T05:53:14;12.95;;;6.20;;
78799;SDS011;68148;55.328;86.106;2023-07-13T05:55:43;29.83;;;4.90;;
78799;SDS011;68148;55.328;86.106;2023-07-13T05:58:13;25.45;;;3.60;;
78799;SDS011;68148;55.328;86.106;2023-07-13T06:00:39;17.13;;;3.72;;
78799;SDS011;68148;55.328;86.106;2023-07-13T06:03:06;12.90;;;3.45;;
78799;SDS011;68148;55.328;86.106;2023-07-13T06:05:32;5.03;;;2.40;;
78799;SDS011;68148;55.328;86.106;2023-07-13T06:10:25;12.23;;;3.30;;
78799;SDS011;68148;55.328;86.106;2023-07-13T06:12:51;6.57;;;2.88;;
78799;SDS011;68148;55.328;86.106;2023-07-13T06:15:17;4.93;;;2.47;;
78799;SDS011;68148;55.328;86.106;2023-07-13T06:17:43;5.53;;;2.90;;
78799;SDS011;68148;55.328;86.106;2023-07-13T06:20:10;6.90;;;3.38;;
78799;SDS011;68148;55.328;86.106;2023-07-13T06:22:36;5.78;;;3.03;;
78799;SDS011;68148;55.328;86.106;2023-07-13T06:25:05;12.88;;;4.50;;
78799;SDS011;68148;55.328;86.106;2023-07-13T06:27:31;14.43;;;5.30;;
78799;SDS011;68148;55.328;86.106;2023-07-13T06:29:56;8.90;;;4.40;;
78799;SDS011;68148;55.328;86.106;2023-07-13T06:32:22;12.50;;;4.00;;
78799;SDS011;68148;55.328;86.106;2023-07-13T06:34:48;7.40;;;3.63;;
78799;SDS011;68148;55.328;86.106;2023-07-13T06:37:14;7.72;;;3.90;;
78799;SDS011;68148;55.328;86.106;2023-07-13T06:39:40;9.77;;;3.90;;
78799;SDS011;68148;55.328;86.106;2023-07-13T06:42:06;7.95;;;4.57;;
78799;SDS011;68148;55.328;86.106;2023-07-13T06:44:32;13.27;;;5.60;;
78799;SDS011;68148;55.328;86.106;2023-07-13T06:46:58;8.10;;;4.22;;
78799;SDS011;68148;55.328;86.106;2023-07-13T06:49:23;14.18;;;6.35;;
78799;SDS011;68148;55.328;86.106;2023-07-13T06:51:49;18.65;;;5.88;;
78799;SDS011;68148;55.328;86.106;2023-07-13T06:54:15;16.88;;;6.78;;
78799;SDS011;68148;55.328;86.106;2023-07-13T06:56:41;10.77;;;4.57;;
78799;SDS011;68148;55.328;86.106;2023-07-13T06:59:07;7.43;;;3.67;;
78799;SDS011;68148;55.328;86.106;2023-07-13T07:01:34;9.82;;;5.13;;
78799;SDS011;68148;55.328;86.106;2023-07-13T07:03:59;9.27;;;3.25;;
78799;SDS011;68148;55.328;86.106;2023-07-13T07:06:25;8.13;;;3.08;;
78799;SDS011;68148;55.328;86.106;2023-07-13T07:08:52;8.50;;;3.85;;
78799;SDS011;68148;55.328;86.106;2023-07-13T07:11:19;9.15;;;3.70;;
78799;SDS011;68148;55.328;86.106;2023-07-13T07:13:46;9.77;;;3.42;;
78799;SDS011;68148;55.328;86.106;2023-07-13T07:16:12;8.20;;;3.08;;
78799;SDS011;68148;55.328;86.106;2023-07-13T07:18:38;10.70;;;4.03;;
78799;SDS011;68148;55.328;86.106;2023-07-13T07:21:04;10.32;;;5.38;;
78799;SDS011;68148;55.328;86.106;2023-07-13T07:23:30;10.27;;;5.15;;
78799;SDS011;68148;55.328;86.106;2023-07-13T07:25:56;14.80;;;4.60;;
78799;SDS011;68148;55.328;86.106;2023-07-13T07:28:22;9.13;;;3.60;;
78799;SDS011;68148;55.328;86.106;2023-07-13T07:30:48;7.95;;;3.70;;
78799;SDS011;68148;55.328;86.106;2023-07-13T07:33:17;6.38;;;3.53;;
78799;SDS011;68148;55.328;86.106;2023-07-13T07:35:43;5.03;;;3.03;;
78799;SDS011;68148;55.328;86.106;2023-07-13T07:38:09;9.35;;;3.75;;
78799;SDS011;68148;55.328;86.106;2023-07-13T07:40:39;5.05;;;3.47;;
78799;SDS011;68148;55.328;86.106;2023-07-13T07:43:08;7.35;;;3.70;;
78799;SDS011;68148;55.328;86.106;2023-07-13T07:45:41;6.03;;;3.85;;
78799;SDS011;68148;55.328;86.106;2023-07-13T07:48:07;5.43;;;3.50;;
78799;SDS011;68148;55.328;86.106;2023-07-13T07:50:33;7.43;;;4.32;;
78799;SDS011;68148;55.328;86.106;2023-07-13T07:53:00;9.55;;;3.85;;
78799;SDS011;68148;55.328;86.106;2023-07-13T07:55:25;7.32;;;3.67;;
78799;SDS011;68148;55.328;86.106;2023-07-13T07:57:55;15.98;;;4.22;;
78799;SDS011;68148;55.328;86.106;2023-07-13T08:02:47;7.45;;;3.55;;
78799;SDS011;68148;55.328;86.106;2023-07-13T08:05:13;7.50;;;4.05;;
78799;SDS011;68148;55.328;86.106;2023-07-13T08:07:39;9.43;;;4.05;;
78799;SDS011;68148;55.328;86.106;2023-07-13T08:10:06;7.97;;;3.60;;
78799;SDS011;68148;55.328;86.106;2023-07-13T08:12:34;7.85;;;3.65;;
78799;SDS011;68148;55.328;86.106;2023-07-13T08:15:01;10.27;;;3.13;;
78799;SDS011;68148;55.328;86.106;2023-07-13T08:17:27;6.22;;;3.13;;
78799;SDS011;68148;55.328;86.106;2023-07-13T08:19:54;7.57;;;3.50;;
78799;SDS011;68148;55.328;86.106;2023-07-13T08:22:20;9.32;;;4.03;;
78799;SDS011;68148;55.328;86.106;2023-07-13T08:24:46;10.57;;;4.43;;
78799;SDS011;68148;55.328;86.106;2023-07-13T08:27:12;7.43;;;3.90;;
78799;SDS011;68148;55.328;86.106;2023-07-13T08:29:38;6.68;;;3.90;;
78799;SDS011;68148;55.328;86.106;2023-07-13T08:32:04;8.32;;;5.03;;
78799;SDS011;68148;55.328;86.106;2023-07-13T08:34:31;7.97;;;4.63;;
78799;SDS011;68148;55.328;86.106;2023-07-13T08:36:57;16.60;;;6.15;;
78799;SDS011;68148;55.328;86.106;2023-07-13T08:39:23;9.77;;;5.70;;
78799;SDS011;68148;55.328;86.106;2023-07-13T08:41:51;10.32;;;4.85;;
78799;SDS011;68148;55.328;86.106;2023-07-13T08:44:25;11.00;;;5.95;;
78799;SDS011;68148;55.328;86.106;2023-07-13T08:47:01;12.35;;;4.95;;
78799;SDS011;68148;55.328;86.106;2023-07-13T08:49:28;10.73;;;4.97;;
78799;SDS011;68148;55.328;86.106;2023-07-13T08:51:58;10.00;;;5.28;;
78799;SDS011;68148;55.328;86.106;2023-07-13T08:54:32;10.18;;;5.55;;
78799;SDS011;68148;55.328;86.106;2023-07-13T08:57:11;9.25;;;4.72;;
78799;SDS011;68148;55.328;86.106;2023-07-13T08:59:39;9.25;;;4.50;;
78799;SDS011;68148;55.328;86.106;2023-07-13T09:04:55;11.73;;;5.05;;
78799;SDS011;68148;55.328;86.106;2023-07-13T09:07:41;10.85;;;5.43;;
78799;SDS011;68148;55.328;86.106;2023-07-13T09:10:12;9.85;;;5.53;;
78799;SDS011;68148;55.328;86.106;2023-07-13T09:15:43;12.35;;;6.07;;
78799;SDS011;68148;55.328;86.106;2023-07-13T09:18:14;10.40;;;5.70;;
78799;SDS011;68148;55.328;86.106;2023-07-13T09:23:39;10.50;;;5.10;;
78799;SDS011;68148;55.328;86.106;2023-07-13T09:26:21;10.38;;;5.03;;
78799;SDS011;68148;55.328;86.106;2023-07-13T09:28:54;9.40;;;5.35;;
78799;SDS011;68148;55.328;86.106;2023-07-13T09:31:32;11.30;;;5.30;;
78799;SDS011;68148;55.328;86.106;2023-07-13T09:34:07;10.85;;;5.30;;
78799;SDS011;68148;55.328;86.106;2023-07-13T09:36:35;9.88;;;4.60;;
78799;SDS011;68148;55.328;86.106;2023-07-13T09:39:43;9.27;;;4.70;;
78799;SDS011;68148;55.328;86.106;2023-07-13T09:44:42;13.73;;;4.57;;
78799;SDS011;68148;55.328;86.106;2023-07-13T09:47:28;7.93;;;4.13;;
78799;SDS011;68148;55.328;86.106;2023-07-13T09:49:59;9.95;;;4.72;;
78799;SDS011;68148;55.328;86.106;2023-07-13T09:52:27;11.45;;;4.32;;
78799;SDS011;68148;55.328;86.106;2023-07-13T09:55:04;7.25;;;3.95;;
78799;SDS011;68148;55.328;86.106;2023-07-13T09:57:30;9.82;;;5.10;;
78799;SDS011;68148;55.328;86.106;2023-07-13T09:59:55;16.75;;;3.88;;
78799;SDS011;68148;55.328;86.106;2023-07-13T10:02:28;7.65;;;3.70;;
78799;SDS011;68148;55.328;86.106;2023-07-13T10:04:57;10.27;;;3.53;;
78799;SDS011;68148;55.328;86.106;2023-07-13T10:07:28;5.40;;;3.05;;
78799;SDS011;68148;55.328;86.106;2023-07-13T10:09:56;7.93;;;3.63;;
78799;SDS011;68148;55.328;86.106;2023-07-13T10:12:23;6.07;;;4.07;;
78799;SDS011;68148;55.328;86.106;2023-07-13T10:14:56;8.77;;;3.88;;
78799;SDS011;68148;55.328;86.106;2023-07-13T10:17:31;7.50;;;3.67;;
78799;SDS011;68148;55.328;86.106;2023-07-13T10:20:03;6.68;;;3.85;;
78799;SDS011;68148;55.328;86.106;2023-07-13T10:25:24;9.07;;;3.33;;
78799;SDS011;68148;55.328;86.106;2023-07-13T10:27:52;7.18;;;3.60;;
78799;SDS011;68148;55.328;86.106;2023-07-13T10:30:24;6.10;;;3.42;;
78799;SDS011;68148;55.328;86.106;2023-07-13T10:33:00;10.07;;;4.15;;
78799;SDS011;68148;55.328;86.106;2023-07-13T10:35:29;6.68;;;3.70;;
78799;SDS011;68148;55.328;86.106;2023-07-13T10:38:06;6.30;;;3.97;;
78799;SDS011;68148;55.328;86.106;2023-07-13T10:40:37;9.45;;;3.80;;
78799;SDS011;68148;55.328;86.106;2023-07-13T10:43:07;10.50;;;3.85;;
78799;SDS011;68148;55.328;86.106;2023-07-13T10:45:39;8.48;;;3.83;;
78799;SDS011;68148;55.328;86.106;2023-07-13T10:48:06;6.68;;;4.25;;
78799;SDS011;68148;55.328;86.106;2023-07-13T10:50:38;5.68;;;4.10;;
78799;SDS011;68148;55.328;86.106;2023-07-13T10:56:06;7.28;;;4.00;;
78799;SDS011;68148;55.328;86.106;2023-07-13T10:59:09;12.52;;;4.45;;
78799;SDS011;68148;55.328;86.106;2023-07-13T11:01:48;8.65;;;4.57;;
78799;SDS011;68148;55.328;86.106;2023-07-13T11:04:18;9.95;;;4.38;;
78799;SDS011;68148;55.328;86.106;2023-07-13T11:06:45;7.95;;;4.15;;
78799;SDS011;68148;55.328;86.106;2023-07-13T11:09:30;7.97;;;3.83;;
78799;SDS011;68148;55.328;86.106;2023-07-13T11:11:56;7.57;;;3.95;;
78799;SDS011;68148;55.328;86.106;2023-07-13T11:14:26;5.07;;;3.65;;
78799;SDS011;68148;55.328;86.106;2023-07-13T11:16:55;6.45;;;4.25;;
78799;SDS011;68148;55.328;86.106;2023-07-13T11:22:09;6.70;;;4.07;;
78799;SDS011;68148;55.328;86.106;2023-07-13T11:30:23;9.13;;;4.25;;
78799;SDS011;68148;55.328;86.106;2023-07-13T11:33:02;7.07;;;4.07;;
78799;SDS011;68148;55.328;86.106;2023-07-13T11:35:36;8.18;;;4.40;;
78799;SDS011;68148;55.328;86.106;2023-07-13T11:38:11;6.88;;;4.47;;
78799;SDS011;68148;55.328;86.106;2023-07-13T11:40:41;7.88;;;4.50;;
78799;SDS011;68148;55.328;86.106;2023-07-13T11:43:11;7.82;;;4.20;;
78799;SDS011;68148;55.328;86.106;2023-07-13T11:45:39;11.27;;;4.25;;
78799;SDS011;68148;55.328;86.106;2023-07-13T11:48:04;11.80;;;4.05;;
78799;SDS011;68148;55.328;86.106;2023-07-13T11:50:30;8.70;;;4.68;;
78799;SDS011;68148;55.328;86.106;2023-07-13T11:52:57;7.20;;;3.95;;
78799;SDS011;68148;55.328;86.106;2023-07-13T11:55:24;8.73;;;4.65;;
78799;SDS011;68148;55.328;86.106;2023-07-13T11:57:51;8.05;;;3.70;;
78799;SDS011;68148;55.328;86.106;2023-07-13T12:00:25;8.25;;;4.60;;
78799;SDS011;68148;55.328;86.106;2023-07-13T12:02:56;14.75;;;4.30;;
78799;SDS011;68148;55.328;86.106;2023-07-13T12:05:24;11.68;;;4.13;;
78799;SDS011;68148;55.328;86.106;2023-07-13T12:07:50;9.52;;;3.95;;
78799;SDS011;68148;55.328;86.106;2023-07-13T12:12:47;10.05;;;3.90;;
78799;SDS011;68148;55.328;86.106;2023-07-13T12:15:18;9.30;;;4.25;;
78799;SDS011;68148;55.328;86.106;2023-07-13T12:17:45;8.93;;;4.68;;
78799;SDS011;68148;55.328;86.106;2023-07-13T12:20:35;9.30;;;4.07;;
78799;SDS011;68148;55.328;86.106;2023-07-13T12:23:07;8.13;;;3.55;;
78799;SDS011;68148;55.328;86.106;2023-07-13T12:25:48;9.23;;;3.88;;
78799;SDS011;68148;55.328;86.106;2023-07-13T12:28:20;9.25;;;4.22;;
78799;SDS011;68148;55.328;86.106;2023-07-13T12:30:48;8.73;;;3.65;;
78799;SDS011;68148;55.328;86.106;2023-07-13T12:33:15;8.30;;;3.72;;
78799;SDS011;68148;55.328;86.106;2023-07-13T12:35:44;5.95;;;3.75;;
78799;SDS011;68148;55.328;86.106;2023-07-13T12:38:12;6.40;;;3.90;;
78799;SDS011;68148;55.328;86.106;2023-07-13T12:40:42;8.43;;;4.20;;
78799;SDS011;68148;55.328;86.106;2023-07-13T12:43:12;10.32;;;3.85;;
78799;SDS011;68148;55.328;86.106;2023-07-13T12:45:54;7.35;;;4.00;;
78799;SDS011;68148;55.328;86.106;2023-07-13T12:48:26;7.85;;;3.78;;
78799;SDS011;68148;55.328;86.106;2023-07-13T12:50:53;6.07;;;3.35;;
78799;SDS011;68148;55.328;86.106;2023-07-13T12:53:21;8.00;;;3.95;;
78799;SDS011;68148;55.328;86.106;2023-07-13T12:55:54;7.53;;;3.50;;
78799;SDS011;68148;55.328;86.106;2023-07-13T12:58:34;5.60;;;3.97;;
78799;SDS011;68148;55.328;86.106;2023-07-13T13:01:03;8.10;;;3.60;;
78799;SDS011;68148;55.328;86.106;2023-07-13T13:03:35;8.32;;;4.03;;
78799;SDS011;68148;55.328;86.106;2023-07-13T13:06:17;6.22;;;3.80;;
78799;SDS011;68148;55.328;86.106;2023-07-13T13:08:48;7.90;;;4.28;;
78799;SDS011;68148;55.328;86.106;2023-07-13T13:11:15;9.35;;;4.55;;
78799;SDS011;68148;55.328;86.106;2023-07-13T13:13:42;7.07;;;4.50;;
78799;SDS011;68148;55.328;86.106;2023-07-13T13:16:12;9.85;;;4.53;;
78799;SDS011;68148;55.328;86.106;2023-07-13T13:18:48;9.95;;;5.05;;
78799;SDS011;68148;55.328;86.106;2023-07-13T13:21:16;11.35;;;5.38;;
78799;SDS011;68148;55.328;86.106;2023-07-13T13:23:43;7.35;;;4.82;;
78799;SDS011;68148;55.328;86.106;2023-07-13T13:26:27;10.02;;;4.45;;
78799;SDS011;68148;55.328;86.106;2023-07-13T13:28:53;7.55;;;4.72;;
78799;SDS011;68148;55.328;86.106;2023-07-13T13:31:19;6.28;;;4.03;;
78799;SDS011;68148;55.328;86.106;2023-07-13T13:33:45;7.53;;;4.80;;
78799;SDS011;68148;55.328;86.106;2023-07-13T13:36:19;7.75;;;4.85;;
78799;SDS011;68148;55.328;86.106;2023-07-13T13:38:48;10.35;;;4.43;;
78799;SDS011;68148;55.328;86.106;2023-07-13T13:41:15;6.38;;;5.07;;
78799;SDS011;68148;55.328;86.106;2023-07-13T13:43:42;10.45;;;5.45;;
78799;SDS011;68148;55.328;86.106;2023-07-13T13:46:21;14.32;;;5.20;;
78799;SDS011;68148;55.328;86.106;2023-07-13T13:48:49;9.80;;;4.80;;
78799;SDS011;68148;55.328;86.106;2023-07-13T13:51:20;10.00;;;4.88;;
78799;SDS011;68148;55.328;86.106;2023-07-13T13:53:48;7.53;;;4.60;;
78799;SDS011;68148;55.328;86.106;2023-07-13T13:56:14;12.13;;;5.40;;
78799;SDS011;68148;55.328;86.106;2023-07-13T13:58:41;11.18;;;5.60;;
78799;SDS011;68148;55.328;86.106;2023-07-13T14:01:14;14.73;;;5.07;;
78799;SDS011;68148;55.328;86.106;2023-07-13T14:03:48;10.43;;;4.97;;
78799;SDS011;68148;55.328;86.106;2023-07-13T14:06:15;12.18;;;4.38;;
78799;SDS011;68148;55.328;86.106;2023-07-13T14:08:42;13.88;;;4.78;;
78799;SDS011;68148;55.328;86.106;2023-07-13T14:11:12;13.57;;;5.60;;
78799;SDS011;68148;55.328;86.106;2023-07-13T14:13:47;8.90;;;5.13;;
78799;SDS011;68148;55.328;86.106;2023-07-13T14:16:17;9.25;;;5.32;;
78799;SDS011;68148;55.328;86.106;2023-07-13T14:18:45;14.27;;;5.97;;
78799;SDS011;68148;55.328;86.106;2023-07-13T14:21:18;9.80;;;4.85;;
78799;SDS011;68148;55.328;86.106;2023-07-13T14:23:48;10.73;;;5.38;;
78799;SDS011;68148;55.328;86.106;2023-07-13T14:26:15;8.52;;;4.88;;
78799;SDS011;68148;55.328;86.106;2023-07-13T14:28:46;16.35;;;5.03;;
78799;SDS011;68148;55.328;86.106;2023-07-13T14:31:14;7.07;;;5.40;;
78799;SDS011;68148;55.328;86.106;2023-07-13T14:33:41;9.73;;;5.35;;
78799;SDS011;68148;55.328;86.106;2023-07-13T14:38:48;10.18;;;5.80;;
78799;SDS011;68148;55.328;86.106;2023-07-13T14:41:15;10.95;;;5.93;;
78799;SDS011;68148;55.328;86.106;2023-07-13T14:43:40;9.32;;;6.57;;
78799;SDS011;68148;55.328;86.106;2023-07-13T14:46:07;11.95;;;6.63;;
78799;SDS011;68148;55.328;86.106;2023-07-13T14:48:43;13.88;;;6.38;;
78799;SDS011;68148;55.328;86.106;2023-07-13T14:51:09;12.55;;;5.45;;
78799;SDS011;68148;55.328;86.106;2023-07-13T14:53:35;10.98;;;5.97;;
78799;SDS011;68148;55.328;86.106;2023-07-13T14:56:01;11.68;;;7.72;;
78799;SDS011;68148;55.328;86.106;2023-07-13T14:58:26;9.45;;;6.55;;
78799;SDS011;68148;55.328;86.106;2023-07-13T15:00:52;11.98;;;6.40;;
78799;SDS011;68148;55.328;86.106;2023-07-13T15:03:24;9.25;;;6.03;;
78799;SDS011;68148;55.328;86.106;2023-07-13T15:05:50;11.05;;;6.50;;
78799;SDS011;68148;55.328;86.106;2023-07-13T15:08:16;11.63;;;6.43;;
78799;SDS011;68148;55.328;86.106;2023-07-13T15:10:42;11.93;;;6.30;;
78799;SDS011;68148;55.328;86.106;2023-07-13T15:13:18;10.75;;;6.70;;
78799;SDS011;68148;55.328;86.106;2023-07-13T15:15:45;11.65;;;6.38;;
78799;SDS011;68148;55.328;86.106;2023-07-13T15:18:14;17.35;;;7.35;;
78799;SDS011;68148;55.328;86.106;2023-07-13T15:20:42;13.40;;;6.68;;
78799;SDS011;68148;55.328;86.106;2023-07-13T15:23:09;12.52;;;6.35;;